createdAt,value
2023-01-11T00:01:11.905Z,101644.77
2023-01-11T00:04:17.062Z,101649.86
2023-01-11T00:07:22.952Z,101654.74
2023-01-11T00:10:29.567Z,101630.84
2023-01-11T00:13:35.083Z,101637.41
2023-01-11T00:16:41.229Z,101653.95
2023-01-11T00:19:46.725Z,101637.29
2023-01-11T00:22:53.289Z,101646.48
2023-01-11T00:25:58.945Z,101649.67
2023-01-11T00:29:04.362Z,101665.66
2023-01-11T00:32:09.895Z,101638.62
2023-01-11T00:35:15.534Z,101644.01
2023-01-11T00:38:23.344Z,101646.58
2023-01-11T00:41:49.547Z,101641.80
2023-01-11T00:45:12.278Z,101654.63
2023-01-11T00:48:18.607Z,101662.35
2023-01-11T00:51:24.097Z,101655.59
2023-01-11T00:54:29.824Z,101666.75
2023-01-11T00:57:35.491Z,101656.09
2023-01-11T01:00:40.673Z,101644.28
2023-01-11T01:03:39.129Z,101663.84
2023-01-11T01:06:45.639Z,101642.34
2023-01-11T01:09:52.192Z,101641.58
2023-01-11T01:13:16.772Z,101634.11
2023-01-11T01:16:23.081Z,101644.80
2023-01-11T01:19:28.975Z,101634.23
2023-01-11T01:22:34.342Z,101642.98
2023-01-11T01:25:40.897Z,101654.77
2023-01-11T01:28:47.214Z,101657.89
2023-01-11T01:31:52.696Z,101651.41
2023-01-11T01:34:58.682Z,101647.03
2023-01-11T01:38:04.774Z,101624.98
2023-01-11T01:41:11.025Z,101638.66
2023-01-11T01:44:19.538Z,101649.60
2023-01-11T01:47:25.783Z,101648.06
2023-01-11T01:50:39.130Z,101644.70
2023-01-11T01:53:54.092Z,101642.11
2023-01-11T01:57:03.467Z,101650.34
2023-01-11T02:00:09.199Z,101643.48
2023-01-11T02:03:14.875Z,101649.50
2023-01-11T02:06:19.992Z,101654.69
2023-01-11T02:09:38.849Z,101647.05
2023-01-11T02:12:57.846Z,101651.48
2023-01-11T02:16:16.131Z,101648.94
2023-01-11T02:19:23.933Z,101652.12
2023-01-11T02:23:16.197Z,101646.40
2023-01-11T02:26:47.910Z,101640.51
2023-01-11T02:30:13.062Z,101638.16
2023-01-11T02:33:53.331Z,101644.28
2023-01-11T02:37:15.135Z,101643.13
2023-01-11T02:40:39.752Z,101648.05
2023-01-11T02:44:09.249Z,101661.27
2023-01-11T02:47:19.027Z,101656.38
2023-01-11T02:50:36.290Z,101661.79
2023-01-11T02:53:56.324Z,101658.21
2023-01-11T02:57:03.743Z,101655.64
2023-01-11T03:00:10.451Z,101656.72
2023-01-11T03:03:30.087Z,101649.63
2023-01-11T03:06:42.992Z,101648.67
2023-01-11T03:10:22.809Z,101660.72
2023-01-11T03:13:53.400Z,101657.79
2023-01-11T03:17:24.720Z,101649.64
2023-01-11T03:20:35.652Z,101655.67
2023-01-11T03:23:55.543Z,101647.34
2023-01-11T03:27:47.088Z,101657.36
2023-01-11T03:31:03.547Z,101662.64
2023-01-11T03:34:29.295Z,101652.62
2023-01-11T03:38:05.689Z,101640.33
2023-01-11T03:41:23.471Z,101643.41
2023-01-11T03:44:28.238Z,101655.66
2023-01-11T03:47:34.129Z,101631.98
2023-01-11T03:50:33.214Z,101647.73
2023-01-11T03:53:39.730Z,101645.97
2023-01-11T03:57:15.159Z,101658.62
2023-01-11T04:00:21.152Z,101656.48
2023-01-11T04:03:27.388Z,101659.50
2023-01-11T04:06:33.122Z,101651.61
2023-01-11T04:09:38.659Z,101649.44
2023-01-11T04:12:44.424Z,101648.83
2023-01-11T04:15:49.583Z,101648.36
2023-01-11T04:18:55.296Z,101659.89
2023-01-11T04:22:01.177Z,101655.00
2023-01-11T04:25:07.143Z,101666.48
2023-01-11T04:28:13.054Z,101664.22
2023-01-11T04:31:18.747Z,101660.92
2023-01-11T04:34:25.141Z,101649.02
2023-01-11T04:37:31.684Z,101670.14
2023-01-11T04:40:37.236Z,101667.14
2023-01-11T04:43:43.988Z,101668.63
2023-01-11T04:46:49.601Z,101664.32
2023-01-11T04:49:55.092Z,101668.68
2023-01-11T04:53:01.201Z,101687.42
2023-01-11T04:56:05.929Z,101660.47
2023-01-11T04:59:11.976Z,101668.84
2023-01-11T05:02:17.363Z,101673.50
2023-01-11T05:05:25.987Z,101667.87
2023-01-11T05:08:32.065Z,101676.58
2023-01-11T05:11:38.034Z,101668.39
2023-01-11T05:14:44.631Z,101673.67
2023-01-11T05:17:50.431Z,101668.79
2023-01-11T05:20:57.179Z,101668.59
2023-01-11T05:24:02.707Z,101685.94
2023-01-11T05:27:09.315Z,101680.41
2023-01-11T05:30:14.992Z,101677.81
2023-01-11T05:33:20.955Z,101679.56
2023-01-11T05:36:31.507Z,101664.48
2023-01-11T05:39:37.219Z,101669.35
2023-01-11T05:42:43.409Z,101668.30
2023-01-11T05:45:49.102Z,101673.97
2023-01-11T05:48:55.091Z,101681.67
2023-01-11T05:52:00.742Z,101685.20
2023-01-11T05:55:08.467Z,101677.97
2023-01-11T05:58:14.472Z,101672.34
2023-01-11T06:01:16.044Z,101678.61
2023-01-11T06:04:21.263Z,101688.22
2023-01-11T06:07:27.135Z,101679.91
2023-01-11T06:10:33.956Z,101684.02
2023-01-11T06:13:41.103Z,101674.66
2023-01-11T06:16:47.951Z,101669.41
2023-01-11T06:19:53.531Z,101675.47
2023-01-11T06:22:58.872Z,101668.08
2023-01-11T06:26:04.815Z,101657.48
2023-01-11T06:29:10.134Z,101658.50
2023-01-11T06:32:15.328Z,101671.31
2023-01-11T06:35:20.843Z,101596.69
2023-01-11T06:38:21.825Z,101662.45
2023-01-11T06:41:10.931Z,101671.17
2023-01-11T06:44:09.814Z,101680.39
2023-01-11T06:47:15.331Z,101677.66
2023-01-11T06:50:21.505Z,101690.66
2023-01-11T06:53:28.883Z,101676.27
2023-01-11T06:56:34.039Z,101680.15
2023-01-11T06:59:39.311Z,101655.72
2023-01-11T07:02:45.576Z,101669.48
2023-01-11T07:05:51.237Z,101667.32
2023-01-11T07:08:57.905Z,101669.53
2023-01-11T07:12:03.417Z,101654.81
2023-01-11T07:15:03.987Z,101656.91
2023-01-11T07:17:50.196Z,101656.59
2023-01-11T07:20:42.202Z,101661.77
2023-01-11T07:23:35.342Z,101669.33
2023-01-11T07:26:42.777Z,101655.35
2023-01-11T07:29:48.679Z,101655.89
2023-01-11T07:32:55.090Z,101656.72
2023-01-11T07:36:03.057Z,101695.22
2023-01-11T07:39:09.211Z,101656.14
2023-01-11T07:42:32.762Z,101648.53
2023-01-11T07:45:45.319Z,101661.97
2023-01-11T07:48:45.759Z,101648.59
2023-01-11T07:51:51.660Z,101652.86
2023-01-11T07:55:00.470Z,101649.16
2023-01-11T07:58:07.263Z,101653.45
2023-01-11T08:01:15.981Z,101662.27
2023-01-11T08:04:21.697Z,101665.05
2023-01-11T08:07:26.501Z,101673.92
2023-01-11T08:10:31.833Z,101659.66
2023-01-11T08:13:55.776Z,101665.14
2023-01-11T08:17:01.912Z,101691.77
2023-01-11T08:20:09.108Z,101681.08
2023-01-11T08:23:18.849Z,101683.27
2023-01-11T08:26:24.985Z,101667.09
2023-01-11T08:29:30.680Z,101660.76
2023-01-11T08:32:36.377Z,101663.55
2023-01-11T08:35:41.565Z,101660.58
2023-01-11T08:38:47.380Z,101662.92
2023-01-11T08:41:54.090Z,101669.44
2023-01-11T08:44:59.937Z,101668.28
2023-01-11T08:48:05.743Z,101658.45
2023-01-11T08:51:11.746Z,101650.80
2023-01-11T08:54:17.160Z,101653.98
2023-01-11T08:57:22.532Z,101658.91
2023-01-11T09:00:28.069Z,101652.73
2023-01-11T09:03:36.009Z,101670.47
2023-01-11T09:06:41.942Z,101661.32
2023-01-11T09:09:49.620Z,101657.45
2023-01-11T09:12:56.666Z,101658.24
2023-01-11T09:16:04.125Z,101670.95
2023-01-11T09:19:09.685Z,101656.52
2023-01-11T09:22:17.048Z,101640.45
2023-01-11T09:25:23.592Z,101659.22
2023-01-11T09:28:28.530Z,101647.77
2023-01-11T09:31:33.696Z,101624.42
2023-01-11T09:34:42.516Z,101623.18
2023-01-11T09:37:49.888Z,101630.28
2023-01-11T09:41:07.880Z,101631.82
2023-01-11T09:44:28.087Z,101632.52
2023-01-11T09:48:06.770Z,101626.63
2023-01-11T09:51:13.893Z,101628.47
2023-01-11T09:54:20.447Z,101621.91
2023-01-11T09:57:39.576Z,101631.28
2023-01-11T10:01:18.909Z,101616.52
2023-01-11T10:04:46.699Z,101616.97
2023-01-11T10:18:29.326Z,101605.76
2023-01-11T10:22:13.829Z,101596.25
2023-01-11T10:25:30.300Z,101585.60
2023-01-11T10:28:40.968Z,101576.49
2023-01-11T10:31:54.651Z,101550.36
2023-01-11T10:35:05.352Z,101551.48
2023-01-11T10:38:20.547Z,101555.64
2023-01-11T10:41:43.983Z,101546.17
2023-01-11T10:44:57.271Z,101544.34
2023-01-11T10:48:33.490Z,101554.78
2023-01-11T10:51:50.430Z,101556.66
2023-01-11T10:55:01.480Z,101554.25
2023-01-11T10:58:26.226Z,101569.25
2023-01-11T11:01:57.683Z,101575.48
2023-01-11T11:05:46.082Z,101574.03
2023-01-11T11:09:22.380Z,101567.53
2023-01-11T11:12:41.276Z,101583.63
2023-01-11T11:15:57.559Z,101582.03
2023-01-11T11:19:06.303Z,101586.09
2023-01-11T11:22:15.390Z,101571.33
2023-01-11T11:25:31.528Z,101573.08
2023-01-11T11:28:44.493Z,101570.01
2023-01-11T11:31:53.434Z,101581.41
2023-01-11T11:35:04.640Z,101566.58
2023-01-11T11:38:09.743Z,101565.12
2023-01-11T11:41:24.643Z,101544.53
2023-01-11T11:44:42.567Z,101550.97
2023-01-11T11:47:50.815Z,101542.16
2023-01-11T11:50:57.590Z,101535.92
2023-01-11T11:54:08.899Z,101543.02
2023-01-11T11:57:37.347Z,101537.42
2023-01-11T12:00:46.992Z,101533.27
2023-01-11T12:03:51.838Z,101537.50
2023-01-11T12:06:58.586Z,101528.86
2023-01-11T12:10:06.870Z,101534.23
2023-01-11T12:13:14.897Z,101547.23
2023-01-11T12:16:37.090Z,101522.72
2023-01-11T12:19:54.526Z,101543.08
2023-01-11T12:23:01.442Z,101523.06
2023-01-11T12:26:22.193Z,101543.62
2023-01-11T12:29:43.659Z,101553.31
2023-01-11T12:33:08.411Z,101554.37
2023-01-11T12:36:28.691Z,101560.13
2023-01-11T12:39:53.370Z,101551.98
2023-01-11T12:43:12.777Z,101554.14
2023-01-11T12:46:40.000Z,101557.81
2023-01-11T12:50:05.959Z,101557.19
2023-01-11T12:53:42.753Z,101563.27
2023-01-11T12:57:14.035Z,101553.84
2023-01-11T13:00:33.723Z,101559.00
2023-01-11T13:04:01.223Z,101548.69
2023-01-11T13:07:23.792Z,101550.39
2023-01-11T13:10:34.717Z,101549.81
2023-01-11T13:14:01.252Z,101548.55
2023-01-11T13:17:34.647Z,101538.95
2023-01-11T13:21:00.694Z,101526.11
2023-01-11T13:24:05.568Z,101537.81
2023-01-11T13:27:21.036Z,101542.05
2023-01-11T13:30:29.581Z,101554.34
2023-01-11T13:33:39.207Z,101550.39
2023-01-11T13:36:54.186Z,101547.62
2023-01-11T13:40:14.358Z,101546.66
2023-01-11T13:43:36.874Z,101545.39
2023-01-11T13:47:13.821Z,101544.91
2023-01-11T13:50:35.049Z,101537.41
2023-01-11T13:53:53.702Z,101548.48
2023-01-11T13:57:05.512Z,101548.89
2023-01-11T14:00:14.338Z,101551.08
2023-01-11T14:04:02.200Z,101550.88
2023-01-11T14:07:15.553Z,101538.50
2023-01-11T14:10:56.523Z,101554.36
2023-01-11T14:14:21.515Z,101553.02
2023-01-11T14:17:45.616Z,101557.66
2023-01-11T14:21:02.031Z,101547.26
2023-01-11T14:24:09.429Z,101550.53
2023-01-11T14:27:28.026Z,101562.87
2023-01-11T14:31:17.651Z,101564.98
2023-01-11T14:34:39.927Z,101559.11
2023-01-11T14:38:20.940Z,101549.46
2023-01-11T14:41:58.944Z,101556.72
2023-01-11T14:45:16.370Z,101550.76
2023-01-11T14:48:43.829Z,101550.80
2023-01-11T14:52:19.870Z,101551.16
2023-01-11T14:55:37.749Z,101555.06
2023-01-11T14:58:46.019Z,101550.68
2023-01-11T15:02:21.413Z,101561.00
2023-01-11T15:05:48.638Z,101550.98
2023-01-11T15:09:03.649Z,101557.19
2023-01-11T15:12:10.644Z,101556.26
2023-01-11T15:15:32.543Z,101556.21
2023-01-11T15:18:39.230Z,101563.09
2023-01-11T15:21:47.352Z,101569.25
2023-01-11T15:24:58.313Z,101573.30
2023-01-11T15:28:04.191Z,101569.25
2023-01-11T15:31:09.494Z,101573.30
2023-01-11T15:34:40.980Z,101577.05
2023-01-11T15:38:06.915Z,101565.98
2023-01-11T15:41:30.754Z,101579.17
2023-01-11T15:45:25.241Z,101564.30
2023-01-11T15:48:37.560Z,101572.10
2023-01-11T15:52:25.506Z,101571.17
2023-01-11T15:56:18.035Z,101570.07
2023-01-11T15:59:50.657Z,101565.00
2023-01-11T16:03:16.502Z,101567.26
2023-01-11T16:06:32.029Z,101574.06
2023-01-11T16:10:03.173Z,101591.38
2023-01-11T16:13:21.937Z,101581.92
2023-01-11T16:16:33.876Z,101595.42
2023-01-11T16:19:47.341Z,101579.31
2023-01-11T16:22:53.564Z,101589.52
2023-01-11T16:25:59.900Z,101602.36
2023-01-11T16:29:08.823Z,101591.69
2023-01-11T16:32:23.709Z,101599.00
2023-01-11T16:35:39.416Z,101603.13
2023-01-11T16:38:45.224Z,101586.66
2023-01-11T16:42:14.401Z,101590.85
2023-01-11T16:45:22.035Z,101601.55
2023-01-11T16:48:33.880Z,101583.30
2023-01-11T16:51:39.877Z,101590.63
2023-01-11T16:54:47.321Z,101589.80
2023-01-11T16:57:55.900Z,101588.80
2023-01-11T17:01:12.843Z,101581.48
2023-01-11T17:04:19.443Z,101577.95
2023-01-11T17:07:40.663Z,101581.58
2023-01-11T17:10:46.429Z,101580.44
2023-01-11T17:14:14.249Z,101573.45
2023-01-11T17:17:22.912Z,101564.91
2023-01-11T17:20:34.980Z,101572.75
2023-01-11T17:23:41.045Z,101573.69
2023-01-11T17:26:50.362Z,101572.68
2023-01-11T17:29:55.523Z,101586.88
2023-01-11T17:33:05.688Z,101586.55
2023-01-11T17:36:10.591Z,101571.75
2023-01-11T17:39:16.284Z,101568.66
2023-01-11T17:42:24.310Z,101582.41
2023-01-11T17:45:39.018Z,101583.94
2023-01-11T17:48:44.242Z,101583.64
2023-01-11T17:51:51.275Z,101593.92
2023-01-11T17:54:57.665Z,101583.31
2023-01-11T17:58:34.684Z,101581.14
2023-01-11T18:01:33.831Z,101573.02
2023-01-11T18:04:40.639Z,101581.20
2023-01-11T18:07:45.718Z,101579.42
2023-01-11T18:10:53.832Z,101578.90
2023-01-11T18:13:59.665Z,101568.30
2023-01-11T18:17:19.221Z,101567.23
2023-01-11T18:20:36.989Z,101561.14
2023-01-11T18:23:43.490Z,101552.10
2023-01-11T18:26:48.683Z,101553.88
2023-01-11T18:29:59.375Z,101542.89
2023-01-11T18:33:05.281Z,101537.27
2023-01-11T18:36:14.704Z,101543.09
2023-01-11T18:39:26.563Z,101541.38
2023-01-11T18:42:34.774Z,101534.84
2023-01-11T18:45:40.101Z,101527.56
2023-01-11T18:48:45.299Z,101531.98
2023-01-11T18:51:51.704Z,101519.17
2023-01-11T18:54:57.739Z,101519.72
2023-01-11T18:58:03.703Z,101521.05
2023-01-11T19:01:12.423Z,101524.34
2023-01-11T19:04:18.431Z,101508.11
2023-01-11T19:07:24.506Z,101505.97
2023-01-11T19:10:31.895Z,101506.30
2023-01-11T19:13:38.055Z,101496.73
2023-01-11T19:16:43.318Z,101496.61
2023-01-11T19:19:49.249Z,101495.06
2023-01-11T19:22:56.038Z,101498.94
2023-01-11T19:26:02.301Z,101505.97
2023-01-11T19:29:07.570Z,101498.52
2023-01-11T19:32:13.060Z,101508.74
2023-01-11T19:35:11.079Z,101502.94
2023-01-11T19:38:04.069Z,101509.37
2023-01-11T19:41:09.670Z,101507.71
2023-01-11T19:44:14.902Z,101505.11
2023-01-11T19:47:24.554Z,101499.98
2023-01-11T19:50:32.287Z,101494.98
2023-01-11T19:53:37.357Z,101496.31
2023-01-11T19:56:43.609Z,101492.49
2023-01-11T19:59:49.860Z,101496.52
2023-01-11T20:02:56.087Z,101497.93
2023-01-11T20:06:01.389Z,101491.90
2023-01-11T20:09:07.414Z,101490.01
2023-01-11T20:12:13.213Z,101488.47
2023-01-11T20:15:18.522Z,101480.50
2023-01-11T20:18:23.609Z,101478.63
2023-01-11T20:21:29.100Z,101473.67
2023-01-11T20:24:39.362Z,101469.22
2023-01-11T20:27:46.198Z,101469.20
2023-01-11T20:30:56.731Z,101467.42
2023-01-11T20:34:02.688Z,101470.11
2023-01-11T20:37:07.813Z,101463.24
2023-01-11T20:40:14.483Z,101471.22
2023-01-11T20:43:20.591Z,101475.62
2023-01-11T20:46:26.472Z,101473.72
2023-01-11T20:49:32.080Z,101486.67
2023-01-11T20:52:37.486Z,101497.69
2023-01-11T20:55:42.472Z,101488.42
2023-01-11T20:58:48.918Z,101478.67
2023-01-11T21:01:53.770Z,101464.19
2023-01-11T21:05:00.257Z,101471.34
2023-01-11T21:08:08.340Z,101470.91
2023-01-11T21:11:22.217Z,101460.30
2023-01-11T21:14:27.637Z,101467.41
2023-01-11T21:17:33.656Z,101452.67
2023-01-11T21:20:38.437Z,101447.48
2023-01-11T21:23:43.663Z,101454.86
2023-01-11T21:26:50.863Z,101472.70
2023-01-11T21:29:57.636Z,101443.98
2023-01-11T21:33:03.761Z,101437.84
2023-01-11T21:36:10.868Z,101441.09
2023-01-11T21:39:16.333Z,101444.70
2023-01-11T21:42:21.726Z,101434.20
2023-01-11T21:45:26.597Z,101453.28
2023-01-11T21:48:31.343Z,101449.02
2023-01-11T21:51:41.119Z,101446.89
2023-01-11T21:54:46.884Z,101441.69
2023-01-11T21:57:53.750Z,101426.67
2023-01-11T22:01:00.848Z,101429.19
2023-01-11T22:04:06.256Z,101420.17
2023-01-11T22:07:12.343Z,101433.56
2023-01-11T22:10:19.430Z,101432.96
2023-01-11T22:13:24.967Z,101423.45
2023-01-11T22:16:32.181Z,101413.00
2023-01-11T22:19:37.751Z,101413.80
2023-01-11T22:22:44.436Z,101401.89
2023-01-11T22:25:51.555Z,101395.71
2023-01-11T22:29:15.538Z,101405.61
2023-01-11T22:32:22.081Z,101398.44
2023-01-11T22:35:28.310Z,101402.48
2023-01-11T22:38:34.709Z,101390.58
2023-01-11T22:41:39.908Z,101397.89
2023-01-11T22:44:46.397Z,101392.31
2023-01-11T22:47:51.409Z,101395.85
2023-01-11T22:50:57.305Z,101378.27
2023-01-11T22:54:04.088Z,101379.98
2023-01-11T22:57:09.918Z,101379.63
2023-01-11T23:00:16.548Z,101391.30
2023-01-11T23:03:22.645Z,101382.70
2023-01-11T23:06:31.525Z,101375.77
2023-01-11T23:09:37.698Z,101378.38
2023-01-11T23:13:01.897Z,101375.31
2023-01-11T23:16:10.850Z,101371.98
2023-01-11T23:19:17.162Z,101376.37
2023-01-11T23:22:23.812Z,101368.07
2023-01-11T23:25:29.704Z,101373.42
2023-01-11T23:28:37.266Z,101379.05
2023-01-11T23:31:43.328Z,101382.33
2023-01-11T23:34:50.825Z,101386.48
2023-01-11T23:37:56.867Z,101389.99
2023-01-11T23:41:20.358Z,101389.18
2023-01-11T23:44:30.123Z,101391.13
2023-01-11T23:47:38.354Z,101394.40
2023-01-11T23:50:36.951Z,101402.72
2023-01-11T23:53:42.889Z,101396.45
2023-01-11T23:56:49.082Z,101396.73
2023-01-11T23:59:54.456Z,101394.80
